createdAt,value
2023-03-19T08:27:21.368Z,100762.16
2023-03-19T08:32:23.737Z,100768.50
2023-03-19T08:37:25.912Z,100763.53
2023-03-19T08:42:28.960Z,100778.00
2023-03-19T08:47:31.257Z,100770.03
2023-03-19T08:52:33.548Z,100770.41
2023-03-19T08:57:36.474Z,100766.78
2023-03-19T09:02:38.770Z,100766.00
2023-03-19T09:07:40.947Z,100754.19
2023-03-19T09:12:43.007Z,100753.22
2023-03-19T09:17:45.128Z,100753.56
2023-03-19T09:22:47.289Z,100741.72
2023-03-19T09:27:49.430Z,100758.06
2023-03-19T09:32:51.546Z,100758.06
2023-03-19T09:37:53.600Z,100741.13
2023-03-19T09:43:18.341Z,100749.84
2023-03-19T09:48:41.453Z,100729.91
2023-03-19T09:53:51.728Z,100733.41
2023-03-19T09:58:54.169Z,100730.88
2023-03-19T10:04:08.359Z,100731.16
2023-03-19T10:09:57.643Z,100730.66
2023-03-19T10:15:11.610Z,100726.41
2023-03-19T10:20:25.434Z,100729.00
2023-03-19T10:25:29.823Z,100714.63
2023-03-19T10:30:33.743Z,100724.66
2023-03-19T10:35:45.532Z,100696.50
2023-03-19T10:41:18.549Z,100718.13
2023-03-19T10:46:21.917Z,100695.34
2023-03-19T10:51:27.298Z,100691.16
2023-03-19T10:56:34.096Z,100680.00
2023-03-19T11:01:39.384Z,100679.22
2023-03-19T11:06:41.668Z,100662.34
2023-03-19T11:11:43.834Z,100666.44
2023-03-19T11:16:54.738Z,100665.59
2023-03-19T11:22:02.911Z,100657.25
2023-03-19T11:27:06.102Z,100640.22
2023-03-19T11:32:21.089Z,100635.22
2023-03-19T11:37:56.017Z,100627.16
2023-03-19T11:43:40.694Z,100611.97
2023-03-19T11:49:07.470Z,100599.50
2023-03-19T11:54:22.288Z,100602.41
2023-03-19T11:59:27.080Z,100589.37
2023-03-19T12:04:31.929Z,100594.84
2023-03-19T12:09:39.620Z,100578.31
2023-03-19T12:14:53.990Z,100581.84
2023-03-19T12:19:59.009Z,100573.09
2023-03-19T12:25:24.247Z,100562.41
2023-03-19T12:30:37.372Z,100545.44
2023-03-19T12:35:43.299Z,100533.62
2023-03-19T12:41:03.781Z,100531.94
2023-03-19T12:46:38.850Z,100529.22
2023-03-19T12:51:46.016Z,100518.97
2023-03-19T12:56:50.834Z,100521.28
2023-03-19T13:02:00.890Z,100509.41
2023-03-19T13:07:08.721Z,100503.53
2023-03-19T13:12:17.599Z,100487.00
2023-03-19T13:17:28.611Z,100497.50
2023-03-19T13:22:35.971Z,100494.63
2023-03-19T13:27:38.084Z,100495.06
2023-03-19T13:33:02.343Z,100475.00
2023-03-19T13:38:15.641Z,100470.47
2023-03-19T13:43:28.590Z,100450.94
2023-03-19T13:48:38.882Z,100452.62
2023-03-19T13:53:52.083Z,100447.75
2023-03-19T13:59:14.855Z,100423.00
2023-03-19T14:04:31.143Z,100410.34
2023-03-19T14:09:38.632Z,100416.59
2023-03-19T14:14:47.534Z,100404.75
2023-03-19T14:19:52.315Z,100400.63
2023-03-19T14:25:14.999Z,100406.13
2023-03-19T14:30:39.097Z,100402.06
2023-03-19T14:35:45.221Z,100410.59
2023-03-19T14:40:51.918Z,100401.09
2023-03-19T14:46:03.914Z,100400.19
2023-03-19T14:51:35.053Z,100398.94
2023-03-19T14:56:37.211Z,100398.41
2023-03-19T15:01:41.579Z,100412.34
2023-03-19T15:06:59.162Z,100405.41
2023-03-19T15:12:33.703Z,100409.81
2023-03-19T15:17:38.789Z,100400.41
2023-03-19T15:22:41.089Z,100417.28
2023-03-19T15:27:43.312Z,100390.75
2023-03-19T15:33:02.944Z,100407.44
